EGUB 020620Z AUTO 19002KT 9999 OVC091/// 12/11 Q1017
From batch tds/metars/production/2022/10/2/h06_m59_metars.cache.csv.gz
Observed at (about 1 hour ago)
Identifier EGUB
EGUB 020550Z AUTO 17003KT 9999 OVC096/// 12/11 Q1016
From batch tds/metars/production/2022/10/2/h06_m21_metars.cache.csv.gz
Observed at (about 2 hours ago)
Identifier EGUB
EGUB 020520Z AUTO 16002KT 9999 OVC100/// 12/11 Q1016
From batch tds/metars/production/2022/10/2/h05_m49_metars.cache.csv.gz
Observed at (about 2 hours ago)
Identifier EGUB
EGUB 020450Z AUTO 18003KT 9999 BKN100/// 12/11 Q1016
From batch tds/metars/production/2022/10/2/h05_m24_metars.cache.csv.gz
Observed at (about 3 hours ago)
Identifier EGUB
EGUB 020420Z AUTO 19003KT 9999 BKN110/// 12/11 Q1016
From batch tds/metars/production/2022/10/2/h04_m54_metars.cache.csv.gz
Observed at (about 3 hours ago)
Identifier EGUB
EGUB 020350Z AUTO 15002KT 9999 BKN110/// 13/11 Q1016
From batch tds/metars/production/2022/10/2/h04_m25_metars.cache.csv.gz
Observed at (about 4 hours ago)
Identifier EGUB
EGUB 020320Z AUTO 21004KT 9999 OVC110/// 13/11 Q1015
From batch tds/metars/production/2022/10/2/h03_m55_metars.cache.csv.gz
Observed at (about 4 hours ago)
Identifier EGUB
EGUB 020220Z AUTO 21004KT 9999 BKN060/// 13/12 Q1015
From batch tds/metars/production/2022/10/2/h02_m59_metars.cache.csv.gz
Observed at (about 5 hours ago)
Identifier EGUB
EGUB 020150Z AUTO 21006KT 9999 SCT120/// 13/12 Q1015
From batch tds/metars/production/2022/10/2/h02_m29_metars.cache.csv.gz
Observed at (about 6 hours ago)
Identifier EGUB
EGUB 020050Z AUTO 20005KT 9999 BKN058/// 14/12 Q1015
From batch tds/metars/production/2022/10/2/h01_m29_metars.cache.csv.gz
Observed at (about 7 hours ago)
Identifier EGUB
EGUB 020020Z AUTO 22007KT 9999 BKN057/// 14/12 Q1014
From batch tds/metars/production/2022/10/2/h00_m59_metars.cache.csv.gz
Observed at (about 7 hours ago)
Identifier EGUB
EGUB 011950Z AUTO 20007KT 9999 OVC170/// 15/11 Q1012
From batch tds/metars/production/2022/10/1/h20_m27_metars.cache.csv.gz
Observed at (about 12 hours ago)
Identifier EGUB
EGUB 011920Z AUTO 22007KT 9999 OVC170/// 15/11 Q1012
From batch tds/metars/production/2022/10/1/h19_m51_metars.cache.csv.gz
Observed at (about 12 hours ago)
Identifier EGUB
EGUB 011850Z AUTO 23008KT 9999 OVC170/// 15/10 Q1012
From batch tds/metars/production/2022/10/1/h19_m26_metars.cache.csv.gz
Observed at (about 13 hours ago)
Identifier EGUB
EGUB 011820Z AUTO 23010KT 9999 BKN170/// 15/10 Q1011
From batch tds/metars/production/2022/10/1/h18_m51_metars.cache.csv.gz
Observed at (about 13 hours ago)
Identifier EGUB
EGUB 011750Z AUTO 23010KT 9999 SCT170/// 16/10 Q1011
From batch tds/metars/production/2022/10/1/h18_m22_metars.cache.csv.gz
Observed at (about 14 hours ago)
Identifier EGUB
EGUB 011720Z AUTO 23009KT 9999 SCT180/// 16/10 Q1011
From batch tds/metars/production/2022/10/1/h17_m58_metars.cache.csv.gz
Observed at (about 14 hours ago)
Identifier EGUB
EGUB 011650Z AUTO 24012KT 9999 NCD 17/09 Q1010
From batch tds/metars/production/2022/10/1/h17_m24_metars.cache.csv.gz
Observed at (about 15 hours ago)
Identifier EGUB
EGUB 011620Z AUTO 24015KT 9999 FEW038/// 18/09 Q1010
From batch tds/metars/production/2022/10/1/h16_m56_metars.cache.csv.gz
Observed at (about 15 hours ago)
Identifier EGUB
EGUB 011550Z AUTO 25013KT 9999 FEW038/// 19/09 Q1010
From batch tds/metars/production/2022/10/1/h16_m29_metars.cache.csv.gz
Observed at (about 16 hours ago)
Identifier EGUB
EGUB 011520Z AUTO 25015KT 9999 FEW040/// 19/09 Q1009
From batch tds/metars/production/2022/10/1/h15_m59_metars.cache.csv.gz
Observed at (about 16 hours ago)
Identifier EGUB
EGUB 011450Z AUTO 26012KT 9999 SCT037/// 19/09 Q1009
From batch tds/metars/production/2022/10/1/h15_m21_metars.cache.csv.gz
Observed at (about 17 hours ago)
Identifier EGUB
EGUB 011420Z AUTO 25012KT 9999 BKN036/// 18/10 Q1009
From batch tds/metars/production/2022/10/1/h14_m58_metars.cache.csv.gz
Observed at (about 17 hours ago)
Identifier EGUB
EGUB 011350Z AUTO 26013KT 9999 OVC038/// 18/09 Q1009
From batch tds/metars/production/2022/10/1/h14_m22_metars.cache.csv.gz
Observed at (about 18 hours ago)
Identifier EGUB
EGUB 011250Z AUTO 25013KT 9999 SCT038/// 19/09 Q1008
From batch tds/metars/production/2022/10/1/h13_m21_metars.cache.csv.gz
Observed at (about 19 hours ago)
Identifier EGUB
EGUB 011220Z AUTO 24015KT 9999 BKN035/// 19/09 Q1008
From batch tds/metars/production/2022/10/1/h12_m54_metars.cache.csv.gz
Observed at (about 19 hours ago)
Identifier EGUB
EGUB 011120Z AUTO 25012KT 9999 BKN032/// 17/10 Q1008
From batch tds/metars/production/2022/10/1/h11_m59_metars.cache.csv.gz
Observed at (about 20 hours ago)
Identifier EGUB
EGUB 011050Z AUTO 26015KT 9999 FEW032/// 17/10 Q1007
From batch tds/metars/production/2022/10/1/h11_m19_metars.cache.csv.gz
Observed at (about 21 hours ago)
Identifier EGUB
EGUB 011020Z AUTO 25013KT 9999 FEW030/// 17/10 Q1007
From batch tds/metars/production/2022/10/1/h10_m54_metars.cache.csv.gz
Observed at (about 21 hours ago)
Identifier EGUB
EGUB 010950Z AUTO 25013KT 9999 NCD 16/10 Q1007
From batch tds/metars/production/2022/10/1/h10_m25_metars.cache.csv.gz
Observed at (about 22 hours ago)
Identifier EGUB
EGUB 010920Z AUTO 25012KT 9999 NCD 16/11 Q1006
From batch tds/metars/production/2022/10/1/h09_m50_metars.cache.csv.gz
Observed at (about 22 hours ago)
Identifier EGUB
EGUB 010850Z AUTO 26010KT 9999 NCD 15/11 Q1006
From batch tds/metars/production/2022/10/1/h09_m19_metars.cache.csv.gz
Observed at (about 23 hours ago)
Identifier EGUB
EGUB 010820Z AUTO 26010KT 9999 NCD 14/10 Q1006
From batch tds/metars/production/2022/10/1/h08_m53_metars.cache.csv.gz
Observed at (about 23 hours ago)
Identifier EGUB
EGUB 010750Z AUTO 20006KT 9999 NCD 13/11 Q1005
From batch tds/metars/production/2022/10/1/h08_m29_metars.cache.csv.gz
Observed at (about 24 hours ago)
Identifier EGUB
EGUB 010720Z AUTO 20006KT 9999 NCD 12/11 Q1005
From batch tds/metars/production/2022/10/1/h07_m59_metars.cache.csv.gz
Observed at (1 day ago)
Identifier EGUB
EGUB 010650Z AUTO 21006KT 9999 NCD 12/10 Q1004
From batch tds/metars/production/2022/10/1/h07_m29_metars.cache.csv.gz
Observed at (1 day ago)
Identifier EGUB
talk